createdAt,value
2022-12-28T00:01:23.876Z,3.95
2022-12-28T00:03:52.673Z,3.80
2022-12-28T00:06:21.778Z,3.80
2022-12-28T00:08:49.462Z,3.90
2022-12-28T00:11:26.415Z,4.85
2022-12-28T00:14:01.633Z,4.25
2022-12-28T00:16:40.645Z,3.67
2022-12-28T00:19:13.120Z,4.72
2022-12-28T00:21:41.387Z,3.72
2022-12-28T00:24:12.356Z,4.20
2022-12-28T00:26:39.737Z,3.53
2022-12-28T00:29:07.665Z,5.43
2022-12-28T00:31:35.183Z,3.85
2022-12-28T00:34:03.541Z,4.05
2022-12-28T00:37:10.973Z,3.72
2022-12-28T00:39:20.499Z,3.60
2022-12-28T00:41:48.227Z,3.75
2022-12-28T00:44:15.739Z,3.33
2022-12-28T00:46:43.174Z,3.67
2022-12-28T00:49:11.965Z,4.80
2022-12-28T00:51:39.404Z,4.22
2022-12-28T00:54:07.093Z,3.65
2022-12-28T00:56:34.758Z,3.62
2022-12-28T00:59:02.172Z,3.97
2022-12-28T01:01:30.169Z,3.78
2022-12-28T01:03:59.100Z,3.62
2022-12-28T01:06:28.305Z,3.83
2022-12-28T01:08:55.823Z,3.42
2022-12-28T01:11:28.775Z,3.78
2022-12-28T01:13:58.201Z,3.72
2022-12-28T01:16:28.882Z,4.12
2022-12-28T01:18:58.450Z,4.10
2022-12-28T01:21:28.474Z,4.80
2022-12-28T01:23:58.009Z,4.65
2022-12-28T01:26:26.629Z,5.05
2022-12-28T01:28:54.195Z,4.93
2022-12-28T01:31:21.860Z,5.20
2022-12-28T01:33:51.228Z,5.55
2022-12-28T01:36:21.253Z,5.87
2022-12-28T01:38:51.480Z,4.78
2022-12-28T01:41:20.059Z,5.00
2022-12-28T01:44:07.338Z,5.43
2022-12-28T01:46:41.309Z,5.60
2022-12-28T01:49:28.846Z,5.15
2022-12-28T01:52:02.748Z,4.22
2022-12-28T01:54:34.107Z,4.50
2022-12-28T01:57:03.700Z,4.20
2022-12-28T01:59:34.186Z,4.55
2022-12-28T02:02:02.054Z,4.37
2022-12-28T02:04:29.884Z,3.67
2022-12-28T02:06:57.310Z,3.62
2022-12-28T02:09:37.024Z,4.12
2022-12-28T02:12:06.360Z,3.67
2022-12-28T02:14:33.958Z,4.00
2022-12-28T02:17:01.917Z,4.35
2022-12-28T02:19:45.587Z,3.22
2022-12-28T02:22:35.294Z,2.90
2022-12-28T02:25:19.571Z,3.45
2022-12-28T02:28:21.907Z,3.80
2022-12-28T02:31:03.622Z,3.87
2022-12-28T02:33:37.509Z,4.00
2022-12-28T02:36:18.156Z,3.83
2022-12-28T02:38:53.494Z,3.97
2022-12-28T02:41:23.507Z,4.20
2022-12-28T02:43:52.260Z,3.67
2022-12-28T02:46:40.829Z,4.00
2022-12-28T02:49:45.984Z,3.47
2022-12-28T02:52:26.549Z,4.10
2022-12-28T02:55:23.386Z,3.80
2022-12-28T02:58:14.537Z,3.62
2022-12-28T03:01:19.572Z,4.10
2022-12-28T03:04:05.221Z,4.30
2022-12-28T03:06:51.840Z,4.25
2022-12-28T03:09:42.291Z,4.05
2022-12-28T03:12:19.621Z,3.92
2022-12-28T03:15:10.951Z,3.65
2022-12-28T03:18:00.133Z,4.43
2022-12-28T03:20:49.563Z,4.12
2022-12-28T03:23:38.429Z,4.05
2022-12-28T03:26:25.889Z,4.35
2022-12-28T03:29:14.155Z,4.62
2022-12-28T03:31:42.620Z,4.47
2022-12-28T03:34:10.667Z,4.30
2022-12-28T03:37:05.182Z,3.75
2022-12-28T03:40:01.275Z,4.18
2022-12-28T03:42:59.210Z,4.28
2022-12-28T03:45:45.948Z,3.60
2022-12-28T03:48:15.658Z,3.97
2022-12-28T03:50:46.581Z,4.00
2022-12-28T03:53:16.596Z,4.10
2022-12-28T03:55:44.666Z,4.60
2022-12-28T03:58:12.872Z,4.22
2022-12-28T04:00:40.319Z,5.20
2022-12-28T04:03:08.304Z,4.93
2022-12-28T04:05:35.951Z,5.53
2022-12-28T04:08:03.405Z,4.60
2022-12-28T04:10:31.105Z,4.22
2022-12-28T04:12:58.720Z,3.92
2022-12-28T04:15:26.556Z,4.20
2022-12-28T04:17:54.437Z,4.03
2022-12-28T04:20:23.789Z,3.95
2022-12-28T04:22:51.227Z,4.72
2022-12-28T04:25:19.429Z,4.30
2022-12-28T04:27:46.858Z,3.90
2022-12-28T04:30:16.294Z,3.60
2022-12-28T04:32:43.997Z,3.53
2022-12-28T04:35:11.676Z,3.60
2022-12-28T04:37:40.181Z,3.60
2022-12-28T04:40:08.737Z,3.90
2022-12-28T04:42:36.132Z,3.50
2022-12-28T04:45:03.810Z,4.45
2022-12-28T04:47:31.437Z,4.05
2022-12-28T04:49:59.008Z,4.55
2022-12-28T04:52:26.368Z,3.75
2022-12-28T04:54:54.042Z,4.10
2022-12-28T04:57:21.427Z,4.22
2022-12-28T04:59:48.817Z,3.97
2022-12-28T05:02:16.671Z,3.47
2022-12-28T05:04:44.172Z,3.80
2022-12-28T05:07:11.543Z,4.78
2022-12-28T05:09:39.199Z,4.30
2022-12-28T05:12:06.653Z,3.95
2022-12-28T05:14:37.191Z,3.62
2022-12-28T05:17:05.525Z,10.65
2022-12-28T05:19:32.963Z,22.10
2022-12-28T05:22:00.840Z,16.33
2022-12-28T05:24:28.511Z,14.10
2022-12-28T05:26:55.935Z,6.68
2022-12-28T05:29:23.304Z,6.50
2022-12-28T05:31:50.998Z,6.12
2022-12-28T05:34:18.448Z,5.32
2022-12-28T05:36:45.851Z,5.15
2022-12-28T05:39:13.524Z,5.72
2022-12-28T05:41:40.964Z,5.30
2022-12-28T05:44:08.335Z,8.25
2022-12-28T05:46:36.136Z,8.80
2022-12-28T05:49:03.678Z,6.40
2022-12-28T05:51:32.642Z,7.05
2022-12-28T05:54:04.305Z,6.82
2022-12-28T05:56:33.015Z,9.50
2022-12-28T05:59:03.346Z,5.28
2022-12-28T06:01:35.898Z,3.90
2022-12-28T06:04:09.126Z,4.25
2022-12-28T06:06:36.600Z,4.35
2022-12-28T06:09:04.591Z,5.97
2022-12-28T06:11:32.129Z,6.95
2022-12-28T06:13:59.946Z,5.40
2022-12-28T06:16:29.981Z,4.43
2022-12-28T06:18:57.688Z,4.87
2022-12-28T06:21:29.727Z,5.95
2022-12-28T06:23:59.102Z,5.97
2022-12-28T06:26:29.029Z,5.80
2022-12-28T06:28:56.849Z,3.90
2022-12-28T06:31:27.101Z,4.75
2022-12-28T06:33:57.120Z,4.72
2022-12-28T06:36:28.345Z,4.68
2022-12-28T06:38:57.713Z,4.32
2022-12-28T06:41:26.472Z,4.20
2022-12-28T06:43:54.635Z,4.75
2022-12-28T06:46:23.609Z,5.12
2022-12-28T06:48:51.892Z,7.60
2022-12-28T06:51:25.058Z,8.27
2022-12-28T06:53:54.060Z,8.80
2022-12-28T06:56:27.261Z,13.40
2022-12-28T06:59:00.507Z,12.95
2022-12-28T07:01:40.985Z,11.48
2022-12-28T07:04:10.354Z,8.32
2022-12-28T07:06:40.668Z,6.00
2022-12-28T07:09:13.868Z,5.28
2022-12-28T07:11:42.450Z,5.95
2022-12-28T07:14:10.904Z,6.25
2022-12-28T07:19:05.935Z,5.90
2022-12-28T07:21:35.997Z,4.75
2022-12-28T07:24:04.742Z,7.47
2022-12-28T07:26:34.224Z,8.25
2022-12-28T07:29:03.889Z,8.40
2022-12-28T07:31:45.168Z,6.87
2022-12-28T07:34:15.126Z,6.40
2022-12-28T07:36:42.589Z,7.07
2022-12-28T07:39:10.577Z,7.18
2022-12-28T07:41:38.420Z,7.65
2022-12-28T07:44:06.437Z,6.10
2022-12-28T07:46:36.919Z,5.50
2022-12-28T07:49:05.236Z,5.07
2022-12-28T07:51:35.227Z,5.82
2022-12-28T07:54:03.722Z,6.10
2022-12-28T07:59:01.415Z,7.00
2022-12-28T08:01:32.308Z,7.87
2022-12-28T08:04:02.930Z,12.65
2022-12-28T08:06:33.056Z,11.32
2022-12-28T08:09:01.601Z,9.73
2022-12-28T08:11:31.763Z,10.10
2022-12-28T08:13:59.792Z,8.95
2022-12-28T08:16:29.126Z,8.88
2022-12-28T08:18:56.619Z,8.68
2022-12-28T08:21:30.485Z,9.05
2022-12-28T08:24:01.391Z,11.10
2022-12-28T08:26:39.623Z,9.18
2022-12-28T08:29:15.609Z,8.07
2022-12-28T08:31:44.343Z,10.05
2022-12-28T08:34:17.300Z,9.70
2022-12-28T08:36:44.956Z,9.35
2022-12-28T08:39:14.515Z,9.20
2022-12-28T08:41:41.963Z,10.00
2022-12-28T08:44:09.527Z,10.70
2022-12-28T08:46:37.611Z,10.82
2022-12-28T08:49:05.950Z,9.95
2022-12-28T08:51:35.851Z,8.88
2022-12-28T08:54:04.274Z,9.15
2022-12-28T08:56:37.424Z,11.82
2022-12-28T08:59:05.625Z,15.40
2022-12-28T09:01:42.528Z,20.98
2022-12-28T09:04:22.214Z,16.62
2022-12-28T09:06:50.087Z,18.80
2022-12-28T09:09:19.901Z,14.40
2022-12-28T09:11:47.983Z,10.57
2022-12-28T09:14:24.394Z,15.10
2022-12-28T09:16:53.710Z,20.08
2022-12-28T09:19:21.961Z,19.80
2022-12-28T09:21:52.558Z,21.52
2022-12-28T09:24:20.530Z,10.52
2022-12-28T09:26:48.756Z,23.92
2022-12-28T09:29:16.114Z,24.02
2022-12-28T09:31:44.321Z,19.98
2022-12-28T09:37:01.514Z,11.55
2022-12-28T09:39:29.362Z,10.77
2022-12-28T09:41:59.587Z,12.50
2022-12-28T09:44:50.555Z,10.90
2022-12-28T09:47:41.185Z,10.98
2022-12-28T09:50:24.067Z,11.43
2022-12-28T09:53:06.866Z,9.80
2022-12-28T09:55:37.001Z,9.63
2022-12-28T09:58:06.460Z,10.80
2022-12-28T10:00:43.137Z,9.43
2022-12-28T10:03:23.199Z,9.05
2022-12-28T10:05:51.761Z,9.57
2022-12-28T10:08:21.643Z,8.65
2022-12-28T10:10:49.885Z,9.50
2022-12-28T10:13:53.567Z,9.68
2022-12-28T10:16:19.040Z,10.73
2022-12-28T10:18:47.901Z,9.80
2022-12-28T10:21:18.676Z,9.32
2022-12-28T10:24:20.827Z,16.27
2022-12-28T10:26:35.872Z,15.65
2022-12-28T10:29:03.593Z,12.50
2022-12-28T10:31:39.416Z,17.20
2022-12-28T10:34:24.497Z,11.60
2022-12-28T10:36:53.000Z,9.65
2022-12-28T10:39:24.855Z,8.55
2022-12-28T10:41:53.000Z,7.95
2022-12-28T10:44:39.457Z,6.93
2022-12-28T10:47:18.517Z,4.65
2022-12-28T10:50:10.479Z,5.45
2022-12-28T10:52:39.436Z,4.07
2022-12-28T10:55:42.495Z,3.33
2022-12-28T10:58:32.944Z,4.68
2022-12-28T11:01:07.089Z,4.47
2022-12-28T11:03:37.134Z,4.27
2022-12-28T11:06:09.723Z,4.68
2022-12-28T11:08:39.602Z,5.25
2022-12-28T11:11:10.885Z,6.07
2022-12-28T11:13:39.132Z,5.93
2022-12-28T11:16:12.541Z,5.93
2022-12-28T11:18:40.870Z,5.75
2022-12-28T11:21:11.002Z,6.25
2022-12-28T11:23:38.770Z,6.53
2022-12-28T11:26:11.294Z,5.47
2022-12-28T11:28:41.961Z,5.53
2022-12-28T11:31:16.471Z,6.53
2022-12-28T11:36:18.251Z,4.95
2022-12-28T11:38:47.775Z,4.47
2022-12-28T11:41:26.452Z,4.87
2022-12-28T11:44:04.792Z,5.80
2022-12-28T11:46:35.390Z,4.10
2022-12-28T11:49:26.162Z,4.30
2022-12-28T11:52:20.686Z,4.07
2022-12-28T11:55:00.160Z,3.70
2022-12-28T11:57:38.802Z,3.72
2022-12-28T12:00:23.097Z,3.78
2022-12-28T12:03:00.923Z,3.90
2022-12-28T12:05:52.168Z,4.45
2022-12-28T12:08:22.693Z,5.32
2022-12-28T12:11:29.511Z,4.37
2022-12-28T12:13:59.391Z,4.57
2022-12-28T12:16:45.883Z,4.80
2022-12-28T12:19:23.373Z,4.87
2022-12-28T12:22:00.404Z,3.40
2022-12-28T12:24:37.447Z,3.95
2022-12-28T12:27:14.771Z,3.58
2022-12-28T12:29:50.980Z,3.62
2022-12-28T12:32:23.583Z,4.30
2022-12-28T12:34:54.988Z,4.87
2022-12-28T12:37:53.521Z,11.20
2022-12-28T12:40:45.800Z,5.68
2022-12-28T12:43:41.157Z,5.60
2022-12-28T12:46:42.924Z,5.03
2022-12-28T12:49:35.652Z,5.68
2022-12-28T12:52:17.002Z,5.25
2022-12-28T12:54:56.266Z,5.55
2022-12-28T12:57:49.676Z,5.72
2022-12-28T13:00:19.021Z,4.32
2022-12-28T13:03:24.548Z,4.18
2022-12-28T13:05:57.610Z,4.80
2022-12-28T13:08:28.226Z,4.85
2022-12-28T13:10:56.084Z,5.28
2022-12-28T13:13:44.449Z,5.05
2022-12-28T13:16:16.426Z,4.35
2022-12-28T13:18:58.318Z,3.83
2022-12-28T13:21:28.567Z,3.33
2022-12-28T13:23:56.262Z,2.85
2022-12-28T13:26:28.584Z,2.62
2022-12-28T13:29:01.590Z,2.10
2022-12-28T13:31:33.876Z,2.33
2022-12-28T13:34:13.489Z,3.58
2022-12-28T13:36:58.273Z,6.45
2022-12-28T13:41:56.679Z,3.83
2022-12-28T13:44:57.446Z,3.72
2022-12-28T13:47:33.114Z,3.05
2022-12-28T13:50:05.263Z,3.10
2022-12-28T13:52:41.668Z,3.17
2022-12-28T13:55:18.865Z,2.70
2022-12-28T13:57:55.727Z,2.45
2022-12-28T14:00:27.418Z,2.60
2022-12-28T14:02:56.282Z,3.08
2022-12-28T14:05:28.852Z,2.72
2022-12-28T14:07:58.342Z,3.65
2022-12-28T14:10:27.222Z,3.42
2022-12-28T14:12:55.952Z,3.15
2022-12-28T14:15:24.120Z,3.12
2022-12-28T14:17:52.277Z,2.97
2022-12-28T14:20:20.253Z,4.20
2022-12-28T14:22:48.104Z,3.40
2022-12-28T14:25:17.980Z,3.95
2022-12-28T14:27:58.453Z,4.20
2022-12-28T14:30:32.448Z,4.65
2022-12-28T14:33:15.213Z,4.55
2022-12-28T14:35:56.646Z,4.30
2022-12-28T14:38:28.387Z,4.57
2022-12-28T14:41:01.327Z,5.00
2022-12-28T14:43:33.467Z,4.93
2022-12-28T14:46:25.876Z,4.43
2022-12-28T14:48:53.694Z,5.93
2022-12-28T14:51:21.292Z,5.72
2022-12-28T14:54:21.195Z,4.90
2022-12-28T14:56:53.127Z,5.80
2022-12-28T14:59:32.892Z,6.10
2022-12-28T15:02:01.512Z,7.35
2022-12-28T15:04:36.879Z,7.15
2022-12-28T15:07:05.925Z,6.18
2022-12-28T15:09:33.725Z,7.05
2022-12-28T15:12:09.849Z,5.78
2022-12-28T15:14:38.068Z,6.57
2022-12-28T15:17:07.649Z,6.82
2022-12-28T15:19:35.479Z,6.50
2022-12-28T15:22:03.281Z,8.10
2022-12-28T15:24:34.250Z,9.07
2022-12-28T15:27:05.359Z,9.25
2022-12-28T15:30:04.334Z,10.40
2022-12-28T15:32:20.502Z,7.20
2022-12-28T15:34:48.193Z,7.25
2022-12-28T15:37:15.797Z,7.07
2022-12-28T15:39:43.282Z,7.82
2022-12-28T15:42:10.995Z,9.05
2022-12-28T15:44:38.398Z,8.25
2022-12-28T15:47:05.855Z,9.23
2022-12-28T15:49:33.536Z,7.70
2022-12-28T15:52:01.078Z,7.93
2022-12-28T15:54:28.444Z,9.70
2022-12-28T15:56:56.532Z,8.50
2022-12-28T15:59:24.020Z,8.52
2022-12-28T16:01:51.485Z,9.20
2022-12-28T16:04:19.422Z,8.70
2022-12-28T16:06:46.843Z,8.50
2022-12-28T16:09:14.605Z,9.18
2022-12-28T16:11:42.905Z,8.85
2022-12-28T16:14:15.437Z,9.50
2022-12-28T16:16:43.688Z,9.82
2022-12-28T16:19:13.591Z,9.45
2022-12-28T16:21:41.251Z,9.50
2022-12-28T16:24:09.500Z,11.05
2022-12-28T16:26:36.968Z,8.65
2022-12-28T16:29:04.392Z,8.38
2022-12-28T16:31:37.047Z,8.20
2022-12-28T16:34:15.661Z,6.45
2022-12-28T16:36:47.064Z,6.70
2022-12-28T16:39:16.743Z,6.32
2022-12-28T16:41:44.604Z,6.20
2022-12-28T16:44:17.549Z,8.13
2022-12-28T16:46:45.606Z,10.82
2022-12-28T16:49:13.351Z,11.43
2022-12-28T16:51:43.841Z,11.32
2022-12-28T16:54:16.588Z,6.78
2022-12-28T16:56:45.170Z,6.80
2022-12-28T16:59:21.517Z,6.90
2022-12-28T17:01:49.421Z,5.68
2022-12-28T17:04:17.309Z,4.97
2022-12-28T17:06:46.733Z,5.03
2022-12-28T17:09:15.127Z,6.43
2022-12-28T17:11:43.195Z,6.90
2022-12-28T17:14:11.617Z,6.82
2022-12-28T17:16:39.584Z,7.37
2022-12-28T17:19:07.714Z,7.12
2022-12-28T17:21:35.408Z,6.03
2022-12-28T17:24:03.015Z,7.28
2022-12-28T17:26:30.936Z,6.80
2022-12-28T17:28:58.614Z,7.35
2022-12-28T17:31:26.129Z,6.32
2022-12-28T17:33:56.135Z,7.68
2022-12-28T17:36:23.917Z,9.07
2022-12-28T17:38:52.310Z,8.23
2022-12-28T17:41:23.032Z,9.73
2022-12-28T17:43:58.236Z,15.60
2022-12-28T17:46:28.699Z,12.48
2022-12-28T17:48:57.912Z,14.80
2022-12-28T17:51:28.465Z,14.77
2022-12-28T17:53:57.106Z,18.25
2022-12-28T17:56:25.162Z,15.88
2022-12-28T17:58:57.252Z,18.67
2022-12-28T18:01:26.036Z,28.25
2022-12-28T18:03:54.736Z,34.83
2022-12-28T18:06:23.466Z,19.90
2022-12-28T18:08:51.769Z,18.08
2022-12-28T18:11:19.707Z,14.60
2022-12-28T18:13:47.762Z,14.77
2022-12-28T18:16:17.766Z,14.48
2022-12-28T18:18:46.413Z,14.23
2022-12-28T18:21:21.692Z,10.07
2022-12-28T18:23:51.959Z,11.02
2022-12-28T18:26:22.980Z,11.07
2022-12-28T18:28:50.947Z,10.50
2022-12-28T18:31:20.279Z,13.62
2022-12-28T18:33:48.594Z,10.52
2022-12-28T18:36:18.123Z,10.52
2022-12-28T18:38:47.005Z,10.25
2022-12-28T18:41:16.946Z,8.85
2022-12-28T18:43:45.037Z,8.98
2022-12-28T18:46:16.030Z,9.20
2022-12-28T18:48:44.469Z,9.05
2022-12-28T18:51:20.005Z,8.85
2022-12-28T18:53:50.005Z,9.27
2022-12-28T18:56:23.342Z,11.05
2022-12-28T18:58:56.092Z,14.80
2022-12-28T19:04:15.912Z,15.52
2022-12-28T19:06:44.367Z,16.65
2022-12-28T19:09:12.824Z,13.30
2022-12-28T19:11:40.867Z,13.02
2022-12-28T19:14:11.844Z,11.32
2022-12-28T19:16:39.427Z,12.40
2022-12-28T19:19:07.057Z,9.50
2022-12-28T19:21:36.965Z,10.45
2022-12-28T19:24:11.622Z,11.35
2022-12-28T19:26:40.348Z,9.32
2022-12-28T19:29:10.428Z,11.60
2022-12-28T19:31:38.248Z,8.95
2022-12-28T19:34:06.051Z,9.60
2022-12-28T19:36:33.818Z,9.88
2022-12-28T19:39:01.721Z,8.82
2022-12-28T19:41:30.221Z,9.57
2022-12-28T19:43:57.905Z,9.65
2022-12-28T19:46:31.338Z,10.30
2022-12-28T19:49:01.587Z,7.90
2022-12-28T19:51:32.172Z,10.18
2022-12-28T19:54:02.350Z,10.13
2022-12-28T19:56:30.931Z,8.15
2022-12-28T19:59:05.400Z,8.57
2022-12-28T20:01:35.803Z,8.43
2022-12-28T20:04:10.496Z,7.93
2022-12-28T20:06:41.548Z,7.62
2022-12-28T20:09:09.811Z,7.85
2022-12-28T20:11:38.444Z,8.25
2022-12-28T20:14:06.597Z,8.65
2022-12-28T20:16:35.193Z,8.48
2022-12-28T20:19:06.897Z,9.45
2022-12-28T20:21:37.105Z,9.13
2022-12-28T20:24:10.379Z,10.13
2022-12-28T20:26:38.743Z,10.18
2022-12-28T20:29:06.570Z,9.20
2022-12-28T20:31:34.441Z,9.73
2022-12-28T20:34:02.245Z,9.30
2022-12-28T20:36:31.873Z,10.77
2022-12-28T20:38:59.690Z,9.60
2022-12-28T20:41:48.468Z,10.52
2022-12-28T20:44:32.541Z,10.07
2022-12-28T20:47:03.149Z,10.23
2022-12-28T20:49:32.134Z,9.18
2022-12-28T20:52:01.984Z,8.65
2022-12-28T20:54:31.176Z,9.50
2022-12-28T20:56:59.032Z,9.70
2022-12-28T20:59:26.962Z,10.68
2022-12-28T21:01:54.675Z,12.82
2022-12-28T21:04:25.117Z,23.33
2022-12-28T21:06:55.811Z,22.50
2022-12-28T21:09:23.207Z,18.25
2022-12-28T21:11:50.668Z,12.05
2022-12-28T21:14:18.802Z,11.50
2022-12-28T21:16:46.937Z,10.93
2022-12-28T21:19:14.991Z,12.13
2022-12-28T21:21:42.741Z,10.38
2022-12-28T21:24:10.206Z,11.82
2022-12-28T21:26:37.680Z,13.43
2022-12-28T21:29:05.840Z,13.43
2022-12-28T21:31:33.386Z,11.82
2022-12-28T21:34:00.922Z,10.43
2022-12-28T21:36:28.692Z,11.98
2022-12-28T21:38:58.964Z,9.50
2022-12-28T21:41:45.204Z,11.90
2022-12-28T21:44:14.324Z,12.15
2022-12-28T21:46:42.941Z,10.27
2022-12-28T21:49:10.463Z,12.05
2022-12-28T21:51:39.317Z,12.00
2022-12-28T21:54:27.073Z,11.23
2022-12-28T21:56:55.837Z,9.32
2022-12-28T21:59:24.495Z,9.48
2022-12-28T22:02:11.651Z,9.90
2022-12-28T22:05:02.548Z,10.13
2022-12-28T22:07:31.397Z,10.55
2022-12-28T22:10:17.883Z,10.52
2022-12-28T22:12:45.457Z,9.02
2022-12-28T22:15:54.043Z,10.05
2022-12-28T22:18:44.873Z,8.88
2022-12-28T22:21:11.249Z,9.13
2022-12-28T22:23:38.626Z,8.60
2022-12-28T22:26:06.127Z,8.32
2022-12-28T22:28:33.828Z,8.43
2022-12-28T22:31:08.118Z,8.32
2022-12-28T22:33:35.830Z,9.20
2022-12-28T22:36:19.732Z,8.52
2022-12-28T22:38:47.484Z,8.45
2022-12-28T22:41:14.856Z,7.80
2022-12-28T22:43:42.339Z,8.13
2022-12-28T22:46:11.616Z,8.00
2022-12-28T22:48:39.039Z,8.30
2022-12-28T22:51:08.788Z,8.88
2022-12-28T22:53:36.719Z,9.40
2022-12-28T22:56:06.578Z,8.60
2022-12-28T22:58:34.449Z,9.40
2022-12-28T23:01:14.030Z,8.98
2022-12-28T23:03:43.953Z,9.90
2022-12-28T23:06:13.741Z,9.00
2022-12-28T23:08:41.212Z,8.80
2022-12-28T23:11:29.857Z,9.30
2022-12-28T23:14:17.269Z,9.43
2022-12-28T23:16:44.910Z,10.10
2022-12-28T23:19:31.283Z,9.98
2022-12-28T23:22:17.381Z,9.70
2022-12-28T23:25:03.622Z,10.07
2022-12-28T23:27:36.984Z,9.48
2022-12-28T23:30:06.874Z,9.88
2022-12-28T23:32:34.421Z,10.30
2022-12-28T23:35:02.399Z,9.43
2022-12-28T23:37:30.272Z,8.98
2022-12-28T23:39:58.094Z,10.38
2022-12-28T23:42:25.539Z,8.65
2022-12-28T23:44:53.200Z,8.93
2022-12-28T23:47:21.129Z,8.60
2022-12-28T23:49:48.513Z,8.98
2022-12-28T23:52:19.615Z,9.15
2022-12-28T23:54:54.810Z,9.60
2022-12-28T23:57:23.015Z,8.18
2022-12-28T23:59:50.416Z,9.10
